ASN logo
ASN Wikibase Occurrence # 211220
Last updated: 30 September 2019
This information is added by users of ASN. Neither ASN nor the Flight Safety Foundation are responsible for the completeness or correctness of this information. If you feel this information is incomplete or incorrect, you can submit corrected information.

Date:19-MAY-2018
Time:13:15 LT
Type:Silhouette image of generic CRJ9 model; specific model in this crash may look slightly different
Canadair CL-600-2D24 Regional Jet CRJ-900LR
Owner/operator:Endeavor Air, opf Delta Connection
Registration: N916XJ
C/n / msn: 15154
Fatalities:Fatalities: 0 / Occupants: 77
Other fatalities:0
Aircraft damage: None
Location:Lexington-Blue Grass Airport, KY (LEX/KLEX) -   United States of America
Phase: Landing
Nature:Domestic Scheduled Passenger
Departure airport:Atlanta Hartsfield-Jackson International Airport, GA (ATL/KATL)
Destination airport:Lexington-Blue Grass Airport, KY (LEX/KLEX)
Narrative:
Delta Air Lines flight DL3359 suffered a runway excursion after landing on runway 22 at Lexington-Blue Grass Airport, Kentucky, USA. The aircraft came to rest in the grass to the left of the runway, prior to the runway end.
The flight crew reported to ATC that there were 73 passengers and 4 crew members on board the flight.

Weather at the time of the incident (1715Z):
KLEX 191733Z VRB04KT 1/2SM R04/1600VP6000FT +RA BKN015 BKN025 OVC033 21/18 A2998 RMK AO2 RAB1656 P0083 T02060178
KLEX 191701Z 20004KT 2 1/2SM R04/6000VP6000FT +RA BKN019 BKN028 OVC050 21/18 A2997 RMK AO2 RAB1656 P0009 T02110183

Sources:

http://www.wkyt.com/content/news/Plane-skids-off-runway-at-Blue-Grass-Airport-483119591.html


Revision history:

Date/timeContributorUpdates
19-May-2018 18:19 harro Added
19-May-2018 18:20 harro Updated [Source, Embed code, Narrative]
19-May-2018 18:46 harro Updated [Total occupants, Source, Narrative]
19-May-2018 18:54 harro Updated [Total occupants, Narrative]
19-May-2018 18:59 harro Updated [Damage]

Corrections or additions? ... Edit this accident description